sensor_id;sensor_type;location;lat;lon;timestamp;P1;durP1;ratioP1;P2;durP2;ratioP2
9809;SDS011;4944;52.514;13.192;2023-09-19T00:00:07;2.97;;;1.90;;
9809;SDS011;4944;52.514;13.192;2023-09-19T00:02:37;2.40;;;1.97;;
9809;SDS011;4944;52.514;13.192;2023-09-19T00:05:05;3.57;;;2.10;;
9809;SDS011;4944;52.514;13.192;2023-09-19T00:07:32;1.80;;;1.70;;
9809;SDS011;4944;52.514;13.192;2023-09-19T00:10:01;3.87;;;2.03;;
9809;SDS011;4944;52.514;13.192;2023-09-19T00:12:29;2.67;;;1.87;;
9809;SDS011;4944;52.514;13.192;2023-09-19T00:14:56;4.03;;;2.03;;
9809;SDS011;4944;52.514;13.192;2023-09-19T00:17:27;3.73;;;2.20;;
9809;SDS011;4944;52.514;13.192;2023-09-19T00:19:55;3.87;;;2.10;;
9809;SDS011;4944;52.514;13.192;2023-09-19T00:22:22;3.57;;;1.87;;
9809;SDS011;4944;52.514;13.192;2023-09-19T00:24:51;2.93;;;2.10;;
9809;SDS011;4944;52.514;13.192;2023-09-19T00:27:18;4.07;;;2.00;;
9809;SDS011;4944;52.514;13.192;2023-09-19T00:29:44;4.50;;;2.20;;
9809;SDS011;4944;52.514;13.192;2023-09-19T00:32:11;2.13;;;1.93;;
9809;SDS011;4944;52.514;13.192;2023-09-19T00:34:40;3.00;;;2.20;;
9809;SDS011;4944;52.514;13.192;2023-09-19T00:37:07;1.87;;;1.77;;
9809;SDS011;4944;52.514;13.192;2023-09-19T00:39:36;3.40;;;1.93;;
9809;SDS011;4944;52.514;13.192;2023-09-19T00:42:03;3.77;;;1.90;;
9809;SDS011;4944;52.514;13.192;2023-09-19T00:44:30;2.43;;;1.93;;
9809;SDS011;4944;52.514;13.192;2023-09-19T00:46:59;4.53;;;2.00;;
9809;SDS011;4944;52.514;13.192;2023-09-19T00:49:27;2.83;;;1.90;;
9809;SDS011;4944;52.514;13.192;2023-09-19T00:51:57;2.40;;;2.20;;
9809;SDS011;4944;52.514;13.192;2023-09-19T00:54:24;2.80;;;2.17;;
9809;SDS011;4944;52.514;13.192;2023-09-19T00:56:53;3.73;;;2.00;;
9809;SDS011;4944;52.514;13.192;2023-09-19T00:59:20;2.93;;;1.63;;
9809;SDS011;4944;52.514;13.192;2023-09-19T01:01:47;2.03;;;1.87;;
9809;SDS011;4944;52.514;13.192;2023-09-19T01:04:18;3.40;;;1.87;;
9809;SDS011;4944;52.514;13.192;2023-09-19T01:06:45;1.97;;;1.87;;
9809;SDS011;4944;52.514;13.192;2023-09-19T01:09:19;4.77;;;2.20;;
9809;SDS011;4944;52.514;13.192;2023-09-19T01:11:47;7.10;;;1.87;;
9809;SDS011;4944;52.514;13.192;2023-09-19T01:14:20;2.53;;;1.97;;
9809;SDS011;4944;52.514;13.192;2023-09-19T01:17:02;2.17;;;1.97;;
9809;SDS011;4944;52.514;13.192;2023-09-19T01:22:32;2.40;;;2.20;;
9809;SDS011;4944;52.514;13.192;2023-09-19T01:25:19;2.30;;;2.10;;
9809;SDS011;4944;52.514;13.192;2023-09-19T01:28:07;2.73;;;1.80;;
9809;SDS011;4944;52.514;13.192;2023-09-19T01:30:49;3.77;;;1.90;;
9809;SDS011;4944;52.514;13.192;2023-09-19T01:33:23;2.53;;;1.93;;
9809;SDS011;4944;52.514;13.192;2023-09-19T01:35:50;2.30;;;1.90;;
9809;SDS011;4944;52.514;13.192;2023-09-19T01:38:22;2.67;;;1.93;;
9809;SDS011;4944;52.514;13.192;2023-09-19T01:40:51;3.63;;;1.70;;
9809;SDS011;4944;52.514;13.192;2023-09-19T01:43:30;3.70;;;2.00;;
9809;SDS011;4944;52.514;13.192;2023-09-19T01:46:04;4.53;;;1.93;;
9809;SDS011;4944;52.514;13.192;2023-09-19T01:48:38;2.00;;;1.80;;
9809;SDS011;4944;52.514;13.192;2023-09-19T01:51:13;3.87;;;1.97;;
9809;SDS011;4944;52.514;13.192;2023-09-19T01:53:50;2.83;;;2.27;;
9809;SDS011;4944;52.514;13.192;2023-09-19T01:56:22;2.93;;;1.90;;
9809;SDS011;4944;52.514;13.192;2023-09-19T01:58:56;1.93;;;1.63;;
9809;SDS011;4944;52.514;13.192;2023-09-19T02:01:27;1.90;;;1.80;;
9809;SDS011;4944;52.514;13.192;2023-09-19T02:03:55;1.93;;;1.80;;
9809;SDS011;4944;52.514;13.192;2023-09-19T02:06:22;3.07;;;1.67;;
9809;SDS011;4944;52.514;13.192;2023-09-19T02:08:50;3.40;;;2.20;;
9809;SDS011;4944;52.514;13.192;2023-09-19T02:11:17;2.57;;;2.00;;
9809;SDS011;4944;52.514;13.192;2023-09-19T02:13:44;1.70;;;1.60;;
9809;SDS011;4944;52.514;13.192;2023-09-19T02:16:11;1.93;;;1.50;;
9809;SDS011;4944;52.514;13.192;2023-09-19T02:18:39;1.83;;;1.73;;
9809;SDS011;4944;52.514;13.192;2023-09-19T02:21:06;4.63;;;2.20;;
9809;SDS011;4944;52.514;13.192;2023-09-19T02:23:35;2.97;;;2.03;;
9809;SDS011;4944;52.514;13.192;2023-09-19T02:26:01;2.13;;;1.83;;
9809;SDS011;4944;52.514;13.192;2023-09-19T02:28:30;2.07;;;1.60;;
9809;SDS011;4944;52.514;13.192;2023-09-19T02:30:57;2.37;;;1.90;;
9809;SDS011;4944;52.514;13.192;2023-09-19T02:33:27;2.40;;;2.20;;
9809;SDS011;4944;52.514;13.192;2023-09-19T02:35:59;3.27;;;1.90;;
9809;SDS011;4944;52.514;13.192;2023-09-19T02:38:29;3.73;;;1.80;;
9809;SDS011;4944;52.514;13.192;2023-09-19T02:40:56;3.27;;;1.80;;
9809;SDS011;4944;52.514;13.192;2023-09-19T02:43:24;2.50;;;1.73;;
9809;SDS011;4944;52.514;13.192;2023-09-19T02:45:51;4.33;;;2.00;;
9809;SDS011;4944;52.514;13.192;2023-09-19T02:48:19;2.73;;;1.90;;
9809;SDS011;4944;52.514;13.192;2023-09-19T02:50:49;7.07;;;2.00;;
9809;SDS011;4944;52.514;13.192;2023-09-19T02:53:17;1.90;;;1.80;;
9809;SDS011;4944;52.514;13.192;2023-09-19T02:55:45;2.07;;;1.80;;
9809;SDS011;4944;52.514;13.192;2023-09-19T02:58:13;2.57;;;1.87;;
9809;SDS011;4944;52.514;13.192;2023-09-19T03:00:40;2.90;;;1.90;;
9809;SDS011;4944;52.514;13.192;2023-09-19T03:03:12;2.13;;;1.53;;
9809;SDS011;4944;52.514;13.192;2023-09-19T03:05:40;2.40;;;1.80;;
9809;SDS011;4944;52.514;13.192;2023-09-19T03:08:12;2.83;;;1.67;;
9809;SDS011;4944;52.514;13.192;2023-09-19T03:10:41;1.67;;;1.57;;
9809;SDS011;4944;52.514;13.192;2023-09-19T03:13:08;1.57;;;1.47;;
9809;SDS011;4944;52.514;13.192;2023-09-19T03:15:36;2.23;;;1.60;;
9809;SDS011;4944;52.514;13.192;2023-09-19T03:18:04;1.40;;;1.30;;
9809;SDS011;4944;52.514;13.192;2023-09-19T03:20:31;1.70;;;1.60;;
9809;SDS011;4944;52.514;13.192;2023-09-19T03:22:58;2.43;;;1.87;;
9809;SDS011;4944;52.514;13.192;2023-09-19T03:25:25;2.80;;;1.17;;
9809;SDS011;4944;52.514;13.192;2023-09-19T03:27:57;2.13;;;1.30;;
9809;SDS011;4944;52.514;13.192;2023-09-19T03:30:24;2.87;;;1.47;;
9809;SDS011;4944;52.514;13.192;2023-09-19T03:32:51;1.53;;;1.10;;
9809;SDS011;4944;52.514;13.192;2023-09-19T03:35:18;3.63;;;1.33;;
9809;SDS011;4944;52.514;13.192;2023-09-19T03:37:45;2.20;;;1.67;;
9809;SDS011;4944;52.514;13.192;2023-09-19T03:40:12;1.43;;;1.33;;
9809;SDS011;4944;52.514;13.192;2023-09-19T03:42:39;2.10;;;1.23;;
9809;SDS011;4944;52.514;13.192;2023-09-19T03:45:08;1.17;;;1.07;;
9809;SDS011;4944;52.514;13.192;2023-09-19T03:47:37;1.40;;;1.23;;
9809;SDS011;4944;52.514;13.192;2023-09-19T03:50:06;1.47;;;1.30;;
9809;SDS011;4944;52.514;13.192;2023-09-19T03:52:36;1.67;;;1.20;;
9809;SDS011;4944;52.514;13.192;2023-09-19T03:55:03;1.93;;;1.13;;
9809;SDS011;4944;52.514;13.192;2023-09-19T03:57:30;2.10;;;1.33;;
9809;SDS011;4944;52.514;13.192;2023-09-19T03:59:57;2.53;;;1.03;;
9809;SDS011;4944;52.514;13.192;2023-09-19T04:02:25;3.37;;;1.40;;
9809;SDS011;4944;52.514;13.192;2023-09-19T04:04:58;2.03;;;1.50;;
9809;SDS011;4944;52.514;13.192;2023-09-19T04:07:25;1.10;;;1.00;;
9809;SDS011;4944;52.514;13.192;2023-09-19T04:09:54;3.70;;;1.23;;
9809;SDS011;4944;52.514;13.192;2023-09-19T04:12:21;1.47;;;1.03;;
9809;SDS011;4944;52.514;13.192;2023-09-19T04:14:48;1.53;;;1.43;;
9809;SDS011;4944;52.514;13.192;2023-09-19T04:17:15;2.27;;;1.50;;
9809;SDS011;4944;52.514;13.192;2023-09-19T04:19:43;1.93;;;1.53;;
9809;SDS011;4944;52.514;13.192;2023-09-19T04:22:10;1.27;;;1.20;;
9809;SDS011;4944;52.514;13.192;2023-09-19T04:24:38;1.30;;;1.20;;
9809;SDS011;4944;52.514;13.192;2023-09-19T04:27:04;1.47;;;1.30;;
9809;SDS011;4944;52.514;13.192;2023-09-19T04:29:32;2.47;;;1.73;;
9809;SDS011;4944;52.514;13.192;2023-09-19T04:32:00;1.33;;;1.23;;
9809;SDS011;4944;52.514;13.192;2023-09-19T04:34:29;3.43;;;1.60;;
9809;SDS011;4944;52.514;13.192;2023-09-19T04:36:57;1.80;;;1.30;;
9809;SDS011;4944;52.514;13.192;2023-09-19T04:39:25;2.77;;;1.33;;
9809;SDS011;4944;52.514;13.192;2023-09-19T04:41:52;1.47;;;1.40;;
9809;SDS011;4944;52.514;13.192;2023-09-19T04:44:20;2.70;;;1.20;;
9809;SDS011;4944;52.514;13.192;2023-09-19T04:46:47;2.37;;;1.30;;
9809;SDS011;4944;52.514;13.192;2023-09-19T04:49:14;1.97;;;1.40;;
9809;SDS011;4944;52.514;13.192;2023-09-19T04:51:43;2.63;;;1.20;;
9809;SDS011;4944;52.514;13.192;2023-09-19T04:54:13;2.33;;;1.30;;
9809;SDS011;4944;52.514;13.192;2023-09-19T04:56:40;1.43;;;1.27;;
9809;SDS011;4944;52.514;13.192;2023-09-19T04:59:07;2.57;;;1.50;;
9809;SDS011;4944;52.514;13.192;2023-09-19T05:01:35;1.40;;;1.30;;
9809;SDS011;4944;52.514;13.192;2023-09-19T05:04:02;3.70;;;1.40;;
9809;SDS011;4944;52.514;13.192;2023-09-19T05:06:30;2.27;;;1.27;;
9809;SDS011;4944;52.514;13.192;2023-09-19T05:09:00;2.50;;;1.30;;
9809;SDS011;4944;52.514;13.192;2023-09-19T05:11:31;3.63;;;1.40;;
9809;SDS011;4944;52.514;13.192;2023-09-19T05:13:58;1.27;;;1.17;;
9809;SDS011;4944;52.514;13.192;2023-09-19T05:16:28;2.30;;;1.50;;
9809;SDS011;4944;52.514;13.192;2023-09-19T05:18:56;2.07;;;1.23;;
9809;SDS011;4944;52.514;13.192;2023-09-19T05:21:25;2.63;;;1.57;;
9809;SDS011;4944;52.514;13.192;2023-09-19T05:23:53;2.00;;;1.47;;
9809;SDS011;4944;52.514;13.192;2023-09-19T05:26:20;3.13;;;1.47;;
9809;SDS011;4944;52.514;13.192;2023-09-19T05:28:49;2.40;;;1.70;;
9809;SDS011;4944;52.514;13.192;2023-09-19T05:31:15;3.63;;;1.73;;
9809;SDS011;4944;52.514;13.192;2023-09-19T05:33:42;1.60;;;1.50;;
9809;SDS011;4944;52.514;13.192;2023-09-19T05:36:09;1.40;;;1.30;;
9809;SDS011;4944;52.514;13.192;2023-09-19T05:38:37;2.07;;;1.57;;
9809;SDS011;4944;52.514;13.192;2023-09-19T05:41:06;1.50;;;1.40;;
9809;SDS011;4944;52.514;13.192;2023-09-19T05:43:33;1.70;;;1.40;;
9809;SDS011;4944;52.514;13.192;2023-09-19T05:46:03;1.60;;;1.50;;
9809;SDS011;4944;52.514;13.192;2023-09-19T05:48:31;1.63;;;1.53;;
9809;SDS011;4944;52.514;13.192;2023-09-19T05:50:58;1.30;;;1.20;;
9809;SDS011;4944;52.514;13.192;2023-09-19T05:53:26;3.03;;;1.57;;
9809;SDS011;4944;52.514;13.192;2023-09-19T05:55:53;1.37;;;1.27;;
9809;SDS011;4944;52.514;13.192;2023-09-19T05:58:20;2.23;;;1.60;;
9809;SDS011;4944;52.514;13.192;2023-09-19T06:00:47;2.53;;;1.53;;
9809;SDS011;4944;52.514;13.192;2023-09-19T06:03:16;2.67;;;1.40;;
9809;SDS011;4944;52.514;13.192;2023-09-19T06:05:44;1.50;;;1.40;;
9809;SDS011;4944;52.514;13.192;2023-09-19T06:08:11;1.60;;;1.50;;
9809;SDS011;4944;52.514;13.192;2023-09-19T06:10:38;2.60;;;1.60;;
9809;SDS011;4944;52.514;13.192;2023-09-19T06:13:05;1.90;;;1.40;;
9809;SDS011;4944;52.514;13.192;2023-09-19T06:15:34;1.47;;;1.37;;
9809;SDS011;4944;52.514;13.192;2023-09-19T06:18:01;3.30;;;1.43;;
9809;SDS011;4944;52.514;13.192;2023-09-19T06:20:31;3.83;;;1.57;;
9809;SDS011;4944;52.514;13.192;2023-09-19T06:22:58;3.77;;;1.70;;
9809;SDS011;4944;52.514;13.192;2023-09-19T06:25:27;2.00;;;1.50;;
9809;SDS011;4944;52.514;13.192;2023-09-19T06:27:54;1.57;;;1.30;;
9809;SDS011;4944;52.514;13.192;2023-09-19T06:30:22;2.57;;;1.77;;
9809;SDS011;4944;52.514;13.192;2023-09-19T06:32:54;2.30;;;1.73;;
9809;SDS011;4944;52.514;13.192;2023-09-19T06:35:22;3.33;;;1.73;;
9809;SDS011;4944;52.514;13.192;2023-09-19T06:37:52;3.40;;;1.70;;
9809;SDS011;4944;52.514;13.192;2023-09-19T06:40:20;2.13;;;1.60;;
9809;SDS011;4944;52.514;13.192;2023-09-19T06:42:47;4.33;;;2.03;;
9809;SDS011;4944;52.514;13.192;2023-09-19T06:45:17;3.13;;;1.43;;
9809;SDS011;4944;52.514;13.192;2023-09-19T06:47:46;3.53;;;1.90;;
9809;SDS011;4944;52.514;13.192;2023-09-19T06:50:15;4.47;;;1.67;;
9809;SDS011;4944;52.514;13.192;2023-09-19T06:52:44;4.27;;;2.23;;
9809;SDS011;4944;52.514;13.192;2023-09-19T06:55:16;3.63;;;1.83;;
9809;SDS011;4944;52.514;13.192;2023-09-19T06:57:44;3.23;;;2.60;;
9809;SDS011;4944;52.514;13.192;2023-09-19T07:00:12;2.27;;;1.50;;
9809;SDS011;4944;52.514;13.192;2023-09-19T07:02:43;3.47;;;1.97;;
9809;SDS011;4944;52.514;13.192;2023-09-19T07:05:10;3.47;;;2.00;;
9809;SDS011;4944;52.514;13.192;2023-09-19T07:07:37;2.10;;;2.00;;
9809;SDS011;4944;52.514;13.192;2023-09-19T07:10:05;3.93;;;2.00;;
9809;SDS011;4944;52.514;13.192;2023-09-19T07:12:34;3.00;;;1.80;;
9809;SDS011;4944;52.514;13.192;2023-09-19T07:15:01;3.60;;;2.00;;
9809;SDS011;4944;52.514;13.192;2023-09-19T07:17:29;2.60;;;2.00;;
9809;SDS011;4944;52.514;13.192;2023-09-19T07:19:55;4.00;;;2.10;;
9809;SDS011;4944;52.514;13.192;2023-09-19T07:22:23;6.27;;;2.30;;
9809;SDS011;4944;52.514;13.192;2023-09-19T07:24:52;3.70;;;1.90;;
9809;SDS011;4944;52.514;13.192;2023-09-19T07:27:19;3.73;;;2.33;;
9809;SDS011;4944;52.514;13.192;2023-09-19T07:29:47;4.00;;;2.10;;
9809;SDS011;4944;52.514;13.192;2023-09-19T07:32:14;4.50;;;2.20;;
9809;SDS011;4944;52.514;13.192;2023-09-19T07:34:42;2.30;;;2.10;;
9809;SDS011;4944;52.514;13.192;2023-09-19T07:37:10;3.60;;;2.40;;
9809;SDS011;4944;52.514;13.192;2023-09-19T07:39:38;3.60;;;2.50;;
9809;SDS011;4944;52.514;13.192;2023-09-19T07:42:09;3.07;;;2.37;;
9809;SDS011;4944;52.514;13.192;2023-09-19T07:44:36;4.07;;;2.17;;
9809;SDS011;4944;52.514;13.192;2023-09-19T07:47:05;2.53;;;2.17;;
9809;SDS011;4944;52.514;13.192;2023-09-19T07:49:32;2.33;;;2.10;;
9809;SDS011;4944;52.514;13.192;2023-09-19T07:51:59;3.93;;;2.70;;
9809;SDS011;4944;52.514;13.192;2023-09-19T07:54:26;3.93;;;2.37;;
9809;SDS011;4944;52.514;13.192;2023-09-19T07:56:55;3.67;;;2.00;;
9809;SDS011;4944;52.514;13.192;2023-09-19T07:59:23;4.37;;;2.30;;
9809;SDS011;4944;52.514;13.192;2023-09-19T08:01:50;2.40;;;1.90;;
9809;SDS011;4944;52.514;13.192;2023-09-19T08:04:18;3.83;;;2.17;;
9809;SDS011;4944;52.514;13.192;2023-09-19T08:06:45;3.23;;;2.13;;
9809;SDS011;4944;52.514;13.192;2023-09-19T08:09:12;3.67;;;2.10;;
9809;SDS011;4944;52.514;13.192;2023-09-19T08:11:45;4.10;;;2.13;;
9809;SDS011;4944;52.514;13.192;2023-09-19T08:14:12;6.00;;;2.30;;
9809;SDS011;4944;52.514;13.192;2023-09-19T08:16:40;5.10;;;2.17;;
9809;SDS011;4944;52.514;13.192;2023-09-19T08:19:08;2.60;;;2.03;;
9809;SDS011;4944;52.514;13.192;2023-09-19T08:21:37;3.00;;;2.30;;
9809;SDS011;4944;52.514;13.192;2023-09-19T08:24:04;5.07;;;2.43;;
9809;SDS011;4944;52.514;13.192;2023-09-19T08:26:32;5.47;;;2.50;;
9809;SDS011;4944;52.514;13.192;2023-09-19T08:28:59;7.03;;;2.20;;
9809;SDS011;4944;52.514;13.192;2023-09-19T08:31:29;7.63;;;2.80;;
9809;SDS011;4944;52.514;13.192;2023-09-19T08:33:56;4.00;;;2.30;;
9809;SDS011;4944;52.514;13.192;2023-09-19T08:36:23;6.80;;;3.00;;
9809;SDS011;4944;52.514;13.192;2023-09-19T08:38:51;6.50;;;2.70;;
9809;SDS011;4944;52.514;13.192;2023-09-19T08:41:18;4.20;;;2.10;;
9809;SDS011;4944;52.514;13.192;2023-09-19T08:43:45;2.93;;;2.40;;
9809;SDS011;4944;52.514;13.192;2023-09-19T08:46:14;4.10;;;2.57;;
9809;SDS011;4944;52.514;13.192;2023-09-19T08:48:45;6.57;;;2.50;;
9809;SDS011;4944;52.514;13.192;2023-09-19T08:51:16;2.50;;;2.30;;
9809;SDS011;4944;52.514;13.192;2023-09-19T08:53:47;5.13;;;2.50;;
9809;SDS011;4944;52.514;13.192;2023-09-19T08:56:25;3.37;;;2.20;;
9809;SDS011;4944;52.514;13.192;2023-09-19T08:58:55;4.97;;;2.40;;
9809;SDS011;4944;52.514;13.192;2023-09-19T09:01:26;3.20;;;2.33;;
9809;SDS011;4944;52.514;13.192;2023-09-19T09:03:55;4.20;;;2.37;;
9809;SDS011;4944;52.514;13.192;2023-09-19T09:06:22;6.77;;;2.70;;
9809;SDS011;4944;52.514;13.192;2023-09-19T09:08:52;4.07;;;2.53;;
9809;SDS011;4944;52.514;13.192;2023-09-19T09:11:19;3.87;;;2.60;;
9809;SDS011;4944;52.514;13.192;2023-09-19T09:13:49;3.10;;;2.13;;
9809;SDS011;4944;52.514;13.192;2023-09-19T09:16:16;4.53;;;2.43;;
9809;SDS011;4944;52.514;13.192;2023-09-19T09:18:43;5.67;;;2.60;;
9809;SDS011;4944;52.514;13.192;2023-09-19T09:21:10;8.43;;;2.77;;
9809;SDS011;4944;52.514;13.192;2023-09-19T09:23:40;4.50;;;2.60;;
9809;SDS011;4944;52.514;13.192;2023-09-19T09:26:09;5.63;;;2.53;;
9809;SDS011;4944;52.514;13.192;2023-09-19T09:28:35;5.30;;;2.80;;
9809;SDS011;4944;52.514;13.192;2023-09-19T09:31:16;5.03;;;2.23;;
9809;SDS011;4944;52.514;13.192;2023-09-19T09:33:52;5.93;;;2.73;;
9809;SDS011;4944;52.514;13.192;2023-09-19T09:36:31;4.93;;;2.50;;
9809;SDS011;4944;52.514;13.192;2023-09-19T09:39:01;3.17;;;2.43;;
9809;SDS011;4944;52.514;13.192;2023-09-19T09:41:42;3.70;;;2.60;;
9809;SDS011;4944;52.514;13.192;2023-09-19T09:44:12;5.40;;;2.67;;
9809;SDS011;4944;52.514;13.192;2023-09-19T09:46:42;5.93;;;2.50;;
9809;SDS011;4944;52.514;13.192;2023-09-19T09:49:47;3.63;;;2.47;;
9809;SDS011;4944;52.514;13.192;2023-09-19T09:52:19;6.40;;;2.80;;
9809;SDS011;4944;52.514;13.192;2023-09-19T09:54:58;5.57;;;2.67;;
9809;SDS011;4944;52.514;13.192;2023-09-19T09:57:28;3.80;;;2.50;;
9809;SDS011;4944;52.514;13.192;2023-09-19T09:59:56;6.63;;;2.80;;
9809;SDS011;4944;52.514;13.192;2023-09-19T10:02:25;4.17;;;2.77;;
9809;SDS011;4944;52.514;13.192;2023-09-19T10:04:58;5.13;;;2.37;;
9809;SDS011;4944;52.514;13.192;2023-09-19T10:07:35;7.00;;;2.93;;
9809;SDS011;4944;52.514;13.192;2023-09-19T10:10:06;6.00;;;2.73;;
9809;SDS011;4944;52.514;13.192;2023-09-19T10:12:45;4.70;;;2.83;;
9809;SDS011;4944;52.514;13.192;2023-09-19T10:15:14;4.40;;;2.50;;
9809;SDS011;4944;52.514;13.192;2023-09-19T10:17:45;5.20;;;2.23;;
9809;SDS011;4944;52.514;13.192;2023-09-19T10:20:13;6.77;;;3.00;;
9809;SDS011;4944;52.514;13.192;2023-09-19T10:22:59;6.47;;;2.70;;
9809;SDS011;4944;52.514;13.192;2023-09-19T10:25:27;7.57;;;2.60;;
9809;SDS011;4944;52.514;13.192;2023-09-19T10:27:56;4.27;;;2.47;;
9809;SDS011;4944;52.514;13.192;2023-09-19T10:30:28;6.20;;;2.60;;
9809;SDS011;4944;52.514;13.192;2023-09-19T10:33:00;4.97;;;2.40;;
9809;SDS011;4944;52.514;13.192;2023-09-19T10:35:27;4.57;;;2.53;;
9809;SDS011;4944;52.514;13.192;2023-09-19T10:37:57;3.40;;;2.37;;
9809;SDS011;4944;52.514;13.192;2023-09-19T10:40:26;5.77;;;2.70;;
9809;SDS011;4944;52.514;13.192;2023-09-19T10:43:01;6.87;;;2.50;;
9809;SDS011;4944;52.514;13.192;2023-09-19T10:45:30;4.90;;;2.23;;
9809;SDS011;4944;52.514;13.192;2023-09-19T10:47:58;4.97;;;2.40;;
9809;SDS011;4944;52.514;13.192;2023-09-19T10:50:25;5.13;;;2.60;;
9809;SDS011;4944;52.514;13.192;2023-09-19T10:52:55;3.33;;;2.20;;
9809;SDS011;4944;52.514;13.192;2023-09-19T10:55:25;4.70;;;2.47;;
9809;SDS011;4944;52.514;13.192;2023-09-19T10:57:55;4.07;;;2.27;;
9809;SDS011;4944;52.514;13.192;2023-09-19T11:00:31;4.20;;;2.43;;
9809;SDS011;4944;52.514;13.192;2023-09-19T11:03:17;5.10;;;2.47;;
9809;SDS011;4944;52.514;13.192;2023-09-19T11:11:48;4.17;;;2.10;;
9809;SDS011;4944;52.514;13.192;2023-09-19T11:14:38;3.00;;;2.20;;
9809;SDS011;4944;52.514;13.192;2023-09-19T11:25:49;4.43;;;2.27;;
9809;SDS011;4944;52.514;13.192;2023-09-19T11:28:28;5.03;;;1.83;;
9809;SDS011;4944;52.514;13.192;2023-09-19T11:30:56;7.40;;;1.80;;
9809;SDS011;4944;52.514;13.192;2023-09-19T11:33:26;3.67;;;2.07;;
9809;SDS011;4944;52.514;13.192;2023-09-19T11:35:58;4.20;;;2.10;;
9809;SDS011;4944;52.514;13.192;2023-09-19T11:41:37;3.15;;;2.20;;
9809;SDS011;4944;52.514;13.192;2023-09-19T11:47:03;3.13;;;1.80;;
9809;SDS011;4944;52.514;13.192;2023-09-19T11:49:33;9.20;;;2.53;;
9809;SDS011;4944;52.514;13.192;2023-09-19T11:52:02;4.57;;;2.10;;
9809;SDS011;4944;52.514;13.192;2023-09-19T11:54:33;6.70;;;2.13;;
9809;SDS011;4944;52.514;13.192;2023-09-19T11:57:05;3.38;;;1.77;;
9809;SDS011;4944;52.514;13.192;2023-09-19T11:59:34;4.20;;;1.97;;
9809;SDS011;4944;52.514;13.192;2023-09-19T12:02:05;3.67;;;2.17;;
9809;SDS011;4944;52.514;13.192;2023-09-19T12:04:35;5.67;;;2.30;;
9809;SDS011;4944;52.514;13.192;2023-09-19T12:07:04;8.00;;;2.17;;
9809;SDS011;4944;52.514;13.192;2023-09-19T12:09:36;4.93;;;1.65;;
9809;SDS011;4944;52.514;13.192;2023-09-19T12:12:06;4.63;;;2.42;;
9809;SDS011;4944;52.514;13.192;2023-09-19T12:14:34;3.17;;;2.20;;
9809;SDS011;4944;52.514;13.192;2023-09-19T12:17:01;6.25;;;1.73;;
9809;SDS011;4944;52.514;13.192;2023-09-19T12:19:28;2.63;;;1.60;;
9809;SDS011;4944;52.514;13.192;2023-09-19T12:21:57;3.47;;;1.67;;
9809;SDS011;4944;52.514;13.192;2023-09-19T12:24:29;7.23;;;2.30;;
9809;SDS011;4944;52.514;13.192;2023-09-19T12:26:59;3.30;;;1.83;;
9809;SDS011;4944;52.514;13.192;2023-09-19T12:29:30;4.57;;;2.07;;
9809;SDS011;4944;52.514;13.192;2023-09-19T12:31:57;3.80;;;1.85;;
9809;SDS011;4944;52.514;13.192;2023-09-19T12:34:29;5.53;;;1.95;;
9809;SDS011;4944;52.514;13.192;2023-09-19T12:37:04;1.73;;;1.63;;
9809;SDS011;4944;52.514;13.192;2023-09-19T12:39:37;6.22;;;1.58;;
9809;SDS011;4944;52.514;13.192;2023-09-19T12:42:08;3.23;;;1.70;;
9809;SDS011;4944;52.514;13.192;2023-09-19T12:44:40;2.20;;;1.70;;
9809;SDS011;4944;52.514;13.192;2023-09-19T12:47:10;3.60;;;1.73;;
9809;SDS011;4944;52.514;13.192;2023-09-19T12:52:39;4.00;;;1.83;;
9809;SDS011;4944;52.514;13.192;2023-09-19T12:55:18;6.67;;;1.83;;
9809;SDS011;4944;52.514;13.192;2023-09-19T12:57:57;3.77;;;1.73;;
9809;SDS011;4944;52.514;13.192;2023-09-19T13:00:32;3.87;;;1.70;;
9809;SDS011;4944;52.514;13.192;2023-09-19T13:03:11;3.40;;;2.30;;
9809;SDS011;4944;52.514;13.192;2023-09-19T13:05:51;3.50;;;2.10;;
9809;SDS011;4944;52.514;13.192;2023-09-19T13:08:23;3.97;;;1.80;;
9809;SDS011;4944;52.514;13.192;2023-09-19T13:11:04;2.83;;;1.60;;
9809;SDS011;4944;52.514;13.192;2023-09-19T13:13:34;6.77;;;3.47;;
9809;SDS011;4944;52.514;13.192;2023-09-19T13:16:02;3.10;;;1.87;;
9809;SDS011;4944;52.514;13.192;2023-09-19T13:18:40;2.33;;;1.73;;
9809;SDS011;4944;52.514;13.192;2023-09-19T13:21:12;4.17;;;1.93;;
9809;SDS011;4944;52.514;13.192;2023-09-19T13:23:49;6.17;;;1.93;;
9809;SDS011;4944;52.514;13.192;2023-09-19T13:26:17;3.87;;;1.80;;
9809;SDS011;4944;52.514;13.192;2023-09-19T13:28:44;2.13;;;1.43;;
9809;SDS011;4944;52.514;13.192;2023-09-19T13:31:13;3.27;;;1.67;;
9809;SDS011;4944;52.514;13.192;2023-09-19T13:33:42;4.50;;;1.80;;
9809;SDS011;4944;52.514;13.192;2023-09-19T13:36:10;2.27;;;1.73;;
9809;SDS011;4944;52.514;13.192;2023-09-19T13:38:38;3.07;;;1.87;;
9809;SDS011;4944;52.514;13.192;2023-09-19T13:41:06;2.77;;;1.60;;
9809;SDS011;4944;52.514;13.192;2023-09-19T13:43:35;5.60;;;1.97;;
9809;SDS011;4944;52.514;13.192;2023-09-19T13:46:02;2.20;;;2.00;;
9809;SDS011;4944;52.514;13.192;2023-09-19T13:48:29;3.33;;;1.87;;
9809;SDS011;4944;52.514;13.192;2023-09-19T13:50:56;5.27;;;1.90;;
9809;SDS011;4944;52.514;13.192;2023-09-19T13:53:23;3.83;;;1.70;;
9809;SDS011;4944;52.514;13.192;2023-09-19T13:55:51;2.83;;;1.77;;
9809;SDS011;4944;52.514;13.192;2023-09-19T13:58:19;3.57;;;1.73;;
9809;SDS011;4944;52.514;13.192;2023-09-19T14:00:46;2.90;;;1.67;;
9809;SDS011;4944;52.514;13.192;2023-09-19T14:03:13;4.70;;;1.80;;
9809;SDS011;4944;52.514;13.192;2023-09-19T14:05:40;2.87;;;1.50;;
9809;SDS011;4944;52.514;13.192;2023-09-19T14:08:08;2.77;;;1.70;;
9809;SDS011;4944;52.514;13.192;2023-09-19T14:10:35;3.60;;;2.00;;
9809;SDS011;4944;52.514;13.192;2023-09-19T14:13:02;5.70;;;1.93;;
9809;SDS011;4944;52.514;13.192;2023-09-19T14:15:31;3.43;;;2.03;;
9809;SDS011;4944;52.514;13.192;2023-09-19T14:18:00;1.83;;;1.37;;
9809;SDS011;4944;52.514;13.192;2023-09-19T14:20:27;3.30;;;1.57;;
9809;SDS011;4944;52.514;13.192;2023-09-19T14:22:54;2.80;;;1.80;;
9809;SDS011;4944;52.514;13.192;2023-09-19T14:25:21;4.10;;;2.00;;
9809;SDS011;4944;52.514;13.192;2023-09-19T14:27:48;2.70;;;1.50;;
9809;SDS011;4944;52.514;13.192;2023-09-19T14:30:15;2.77;;;1.73;;
9809;SDS011;4944;52.514;13.192;2023-09-19T14:32:43;2.85;;;1.85;;
9809;SDS011;4944;52.514;13.192;2023-09-19T14:35:10;3.13;;;1.80;;
9809;SDS011;4944;52.514;13.192;2023-09-19T14:37:40;4.13;;;2.03;;
9809;SDS011;4944;52.514;13.192;2023-09-19T14:40:07;2.83;;;1.77;;
9809;SDS011;4944;52.514;13.192;2023-09-19T14:42:35;2.83;;;1.53;;
9809;SDS011;4944;52.514;13.192;2023-09-19T14:45:05;4.70;;;1.80;;
9809;SDS011;4944;52.514;13.192;2023-09-19T14:47:32;2.57;;;1.83;;
9809;SDS011;4944;52.514;13.192;2023-09-19T14:50:01;4.23;;;1.80;;
9809;SDS011;4944;52.514;13.192;2023-09-19T14:52:31;3.40;;;1.77;;
9809;SDS011;4944;52.514;13.192;2023-09-19T14:54:59;3.93;;;2.10;;
9809;SDS011;4944;52.514;13.192;2023-09-19T14:57:26;2.67;;;1.92;;
9809;SDS011;4944;52.514;13.192;2023-09-19T14:59:54;3.80;;;1.80;;
9809;SDS011;4944;52.514;13.192;2023-09-19T15:02:21;1.93;;;1.70;;
9809;SDS011;4944;52.514;13.192;2023-09-19T15:04:48;5.23;;;2.10;;
9809;SDS011;4944;52.514;13.192;2023-09-19T15:07:17;2.30;;;1.95;;
9809;SDS011;4944;52.514;13.192;2023-09-19T15:09:44;4.67;;;1.90;;
9809;SDS011;4944;52.514;13.192;2023-09-19T15:12:12;4.60;;;1.63;;
9809;SDS011;4944;52.514;13.192;2023-09-19T15:14:40;4.50;;;2.00;;
9809;SDS011;4944;52.514;13.192;2023-09-19T15:17:07;3.85;;;1.90;;
9809;SDS011;4944;52.514;13.192;2023-09-19T15:19:34;2.50;;;2.10;;
9809;SDS011;4944;52.514;13.192;2023-09-19T15:22:03;3.10;;;1.97;;
9809;SDS011;4944;52.514;13.192;2023-09-19T15:24:32;2.57;;;2.03;;
9809;SDS011;4944;52.514;13.192;2023-09-19T15:26:59;3.60;;;2.50;;
9809;SDS011;4944;52.514;13.192;2023-09-19T15:29:26;4.90;;;2.10;;
9809;SDS011;4944;52.514;13.192;2023-09-19T15:31:54;2.83;;;2.00;;
9809;SDS011;4944;52.514;13.192;2023-09-19T15:34:23;4.03;;;2.13;;
9809;SDS011;4944;52.514;13.192;2023-09-19T15:36:50;4.40;;;2.03;;
9809;SDS011;4944;52.514;13.192;2023-09-19T15:39:17;3.00;;;1.97;;